Wheeling Ohio County Airport
KHLG : now visible

Airfield :











YOU CAN JOIN US ON...

 
LOGIN :

Register | Disclaimer

   EN    FR    IT 

 









Legend :    VFR   Marginal VFR   IFR   Intensive IFR   Very Intensive IFR
Visi :
Ceiling :
>= 8 km
>= 3000ft
5 to 8 km
1000 to 3000 ft
1500m to 5 km
500 to 1000 ft
800 to 1500m
200 to 500 ft
< 800m
< 200 ft
Symbols :   Thunderstorms  Fog  Heavy snow  Heavy precipitations  Wind > 20 kt






- Airport Elevation : 1195 ft


KHLG - Wheeling Ohio County

CURRENT METAR :
  • 152253Z 00000KT 10SM BKN011 OVC014 01/M01 A2968 RMK AO2 CIG 008V013 SLP061 T00111006

EXPIRED METARs :
  • 152236Z 20007KT 10SM BKN011 OVC060 01/M01 A2967 RMK AO2 T00111006
  • 152226Z 20008KT 10SM BKN009 BKN014 OVC060 01/M01 A2966 RMK AO2 T00111006
  • 152153Z 19006KT 10SM FEW009 SCT013 OVC049 02/M01 A2965 RMK AO2 SLP051 T00171006
  • 152139Z 23007KT 10SM BKN010 BKN014 OVC047 02/M01 A2965 RMK AO2 T00171006
  • 152053Z 21009G15KT 10SM BKN007 OVC011 02/00 A2963 RMK AO2 UPB40E42SNE40 CIG 004V010 SLP043 P0001 60010 T00170000 51016

TAF KHLG
Valid from the 16 at 00:00 until the 17 at 00:00 UTC


152330Z 1600/1624 VRB03KT P6SM SCT015 SCT070
TEMPO 1600/1601 BKN015
FM161100 00000KT P6SM BKN025
FM161400 VRB03KT 6SM -SHSN OVC008
FM161700 24005KT 5SM -SHSN OVC015
KZOB FIR / North America



MET'MAP, your aeronautical weather chart ! - Copyright ORBIFLY December 2007 - Disclaimer

ORBIFLY MET'MAP TEAM :

Programming & Development : Alexandra Zaïnal
Concept & original design : Baudouin d'Aumeries
Assistance for programming : Marc-Olivier Méhu
Technical & hardware support : Manuel Goepfert

Contact : metmap@orbifly.com




SOURCES & CREDITS :

   NOAA       Earth
Advisory